Time;durP1;ratioP1;P1;durP2;ratioP2;P2;SDS_P1;SDS_P2;PMS_P1;PMS_P2;Temp;Humidity;BMP_temperature;BMP_pressure;BME280_temperature;BME280_humidity;BME280_pressure;Samples;Min_cycle;Max_cycle;Signal;HPM_P1;HPM_P2
2022/09/04 00:02:26;;;;;;;10.27;8.30;;;;;;;17.70;100.00;94851.91;5030439;28;20190;-62
2022/09/04 00:05:07;;;;;;;11.13;7.68;;;;;;;17.83;100.00;94866.81;5030400;28;20315;-61
2022/09/04 00:07:51;;;;;;;9.63;8.13;;;;;;;17.75;100.00;94867.66;5012387;28;20189;-62
2022/09/04 00:10:44;;;;;;;9.43;7.93;;;;;;;17.73;100.00;94869.59;5030006;28;20279;-61
2022/09/04 00:13:16;;;;;;;10.15;7.90;;;;;;;17.70;100.00;94871.66;5029308;28;20653;-61
2022/09/04 00:15:48;;;;;;;11.27;8.00;;;;;;;17.61;100.00;94864.00;5030208;28;20605;-61
2022/09/04 00:18:30;;;;;;;9.27;7.75;;;;;;;17.58;100.00;94853.25;5029960;28;20198;-62
2022/09/04 00:21:08;;;;;;;12.02;8.30;;;;;;;17.66;100.00;94865.25;5012161;28;20190;-61
2022/09/04 00:23:46;;;;;;;8.02;6.97;;;;;;;17.69;100.00;94875.22;5030027;28;20214;-62
2022/09/04 00:26:17;;;;;;;9.02;8.13;;;;;;;17.83;100.00;94880.47;5012984;28;20186;-62
2022/09/04 00:28:54;;;;;;;9.25;8.32;;;;;;;18.02;100.00;94895.47;5029950;28;20285;-62
2022/09/04 00:31:40;;;;;;;9.05;8.10;;;;;;;17.67;100.00;94862.53;5029922;28;20220;-61
2022/09/04 00:34:11;;;;;;;8.68;7.57;;;;;;;17.64;100.00;94870.56;5029417;28;20302;-61
2022/09/04 00:36:42;;;;;;;13.90;8.15;;;;;;;17.65;100.00;94873.97;5029745;28;20293;-62
2022/09/04 00:39:34;;;;;;;9.52;8.38;;;;;;;17.63;100.00;94874.91;5029801;28;20217;-61
2022/09/04 00:42:03;;;;;;;8.45;7.35;;;;;;;17.60;100.00;94884.75;5029854;28;20197;-62
2022/09/04 00:44:41;;;;;;;9.20;7.68;;;;;;;17.15;100.00;94851.13;5029956;28;20218;-62
2022/09/04 00:47:32;;;;;;;7.30;6.60;;;;;;;17.31;100.00;94877.56;5029583;28;20201;-62
2022/09/04 00:50:00;;;;;;;8.35;7.25;;;;;;;17.06;100.00;94872.66;5029749;28;20292;-62
2022/09/04 00:52:44;;;;;;;6.65;5.95;;;;;;;17.08;100.00;94868.16;5029560;28;20202;-63
2022/09/04 00:55:28;;;;;;;7.50;6.22;;;;;;;17.08;100.00;94881.00;5015917;23;20317;-62
2022/09/04 00:58:07;;;;;;;7.45;6.00;;;;;;;16.66;100.00;94861.47;5009792;28;20737;-62
2022/09/04 01:00:34;;;;;;;6.00;5.28;;;;;;;16.66;100.00;94876.88;5009755;28;20209;-61
2022/09/04 01:03:07;;;;;;;6.57;5.45;;;;;;;16.84;100.00;94896.44;5009638;28;20274;-61
2022/09/04 01:05:32;;;;;;;7.20;5.00;;;;;;;16.56;100.00;94863.38;5008576;28;20276;-61
2022/09/04 01:08:06;;;;;;;7.25;4.90;;;;;;;16.55;100.00;94876.38;5009627;28;20195;-62
2022/09/04 01:10:40;;;;;;;5.55;4.90;;;;;;;16.50;100.00;94876.09;5009584;28;20712;-61
2022/09/04 01:13:32;;;;;;;7.20;5.53;;;;;;;16.33;100.00;94875.25;5009750;28;20187;-60
2022/09/04 01:16:13;;;;;;;5.68;5.07;;;;;;;16.45;100.00;94881.66;5009575;28;20624;-61
2022/09/04 01:18:57;;;;;;;5.63;4.68;;;;;;;16.55;100.00;94900.31;5008521;28;20246;-61
2022/09/04 01:21:49;;;;;;;6.07;4.82;;;;;;;16.39;100.00;94895.13;5008204;28;20190;-62
2022/09/04 01:24:32;;;;;;;5.82;4.85;;;;;;;16.15;100.00;94873.75;5010373;28;20230;-62
2022/09/04 01:27:04;;;;;;;5.53;4.57;;;;;;;16.00;100.00;94865.88;5012853;28;20198;-61
2022/09/04 01:29:38;;;;;;;8.98;5.57;;;;;;;15.97;100.00;94868.78;5012772;28;20741;-62
2022/09/04 01:32:23;;;;;;;6.82;5.53;;;;;;;15.94;100.00;94859.63;5013040;28;20187;-61
2022/09/04 01:35:11;;;;;;;5.82;5.05;;;;;;;16.10;100.00;94858.06;5012625;28;20254;-62
2022/09/04 01:37:58;;;;;;;6.63;4.70;;;;;;;16.02;100.00;94851.13;5012627;28;20191;-61
2022/09/04 01:40:47;;;;;;;6.90;4.35;;;;;;;16.06;100.00;94852.44;5011205;28;20297;-61
2022/09/04 01:43:21;;;;;;;8.75;5.00;;;;;;;16.03;100.00;94852.75;5012733;28;20272;-62
2022/09/04 01:46:24;;;;;;;8.57;5.32;;;;;;;16.02;100.00;94856.25;5012655;28;20190;-61
2022/09/04 01:48:52;;;;;;;5.57;5.07;;;;;;;16.04;100.00;94849.22;5012607;28;20222;-62
2022/09/04 01:51:27;;;;;;;5.75;5.18;;;;;;;16.14;100.00;94855.00;5012504;28;20656;-62
2022/09/04 01:54:07;;;;;;;5.75;4.82;;;;;;;16.13;100.00;94863.66;5012520;28;20263;-62
2022/09/04 01:56:52;;;;;;;5.78;4.90;;;;;;;16.02;100.00;94861.41;5012474;28;20218;-62
2022/09/04 01:59:30;;;;;;;7.07;5.03;;;;;;;15.89;100.00;94836.22;5010990;28;20214;-61
2022/09/04 02:02:19;;;;;;;8.07;4.95;;;;;;;15.87;100.00;94838.16;5012530;28;20272;-62
2022/09/04 02:04:58;;;;;;;7.72;4.90;;;;;;;15.94;100.00;94846.00;5012455;28;20223;-62
2022/09/04 02:07:38;;;;;;;8.43;5.18;;;;;;;16.02;100.00;94858.81;5012282;28;20191;-62
2022/09/04 02:10:44;;;;;;;8.77;5.05;;;;;;;16.17;100.00;94859.00;5012274;28;20261;-62
2022/09/04 02:13:21;;;;;;;5.90;5.18;;;;;;;16.25;100.00;94862.41;5012531;28;20210;-62
2022/09/04 02:16:14;;;;;;;5.05;4.55;;;;;;;16.29;100.00;94860.31;5012323;28;20186;-62
2022/09/04 02:18:43;;;;;;;6.60;5.10;;;;;;;16.34;100.00;94860.66;5012176;28;20225;-61
2022/09/04 02:21:50;;;;;;;6.30;4.63;;;;;;;16.46;100.00;94872.19;5012146;28;20184;-62
2022/09/04 02:24:15;;;;;;;5.97;4.68;;;;;;;16.54;100.00;94873.03;4990207;28;20234;-62
2022/09/04 02:26:47;;;;;;;6.78;5.43;;;;;;;16.56;100.00;94881.34;5012332;28;20789;-64
2022/09/04 02:29:24;;;;;;;6.60;4.95;;;;;;;16.69;100.00;94886.00;5012237;28;20214;-61
2022/09/04 02:32:01;;;;;;;6.90;5.15;;;;;;;16.86;100.00;94886.81;5011764;28;20290;-61
2022/09/04 02:34:45;;;;;;;6.65;5.50;;;;;;;16.76;100.00;94874.97;5011766;28;20287;-61
2022/09/04 02:37:29;;;;;;;6.75;5.30;;;;;;;16.62;100.00;94849.91;5011310;28;20187;-61
2022/09/04 02:40:11;;;;;;;9.38;5.38;;;;;;;16.41;100.00;94841.88;5012069;28;20265;-62
2022/09/04 02:42:56;;;;;;;9.40;5.70;;;;;;;16.24;100.00;94819.72;5011833;28;20193;-62
2022/09/04 02:45:33;;;;;;;6.50;5.82;;;;;;;16.02;100.00;94825.50;5011695;28;20689;-62
2022/09/04 02:48:35;;;;;;;7.78;6.57;;;;;;;16.07;100.00;94836.09;5011654;28;20202;-62
2022/09/04 02:51:37;;;;;;;12.65;6.18;;;;;;;16.18;100.00;94846.03;5011748;28;20309;-62
2022/09/04 02:54:42;;;;;;;7.38;6.63;;;;;;;16.19;100.00;94847.66;4986114;28;20349;-61
2022/09/04 02:57:53;;;;;;;9.13;7.15;;;;;;;16.25;100.00;94847.00;4978839;28;20207;-61
2022/09/04 03:00:27;;;;;;;10.15;7.15;;;;;;;16.30;100.00;94860.16;5011413;28;20254;-62
2022/09/04 03:03:14;;;;;;;8.02;6.75;;;;;;;16.40;100.00;94865.94;5011540;28;20225;-61
2022/09/04 03:05:42;;;;;;;8.38;7.03;;;;;;;16.42;100.00;94869.13;5011377;28;20207;-61
2022/09/04 03:08:22;;;;;;;8.60;6.80;;;;;;;16.45;100.00;94878.28;5011440;28;20190;-61
2022/09/04 03:10:59;;;;;;;7.28;6.40;;;;;;;16.51;100.00;94883.63;5009950;28;20186;-61
2022/09/04 03:13:56;;;;;;;7.53;6.03;;;;;;;16.46;100.00;94882.47;5011179;28;20697;-61
2022/09/04 03:16:25;;;;;;;6.35;5.45;;;;;;;16.74;100.00;94905.13;5010028;28;20201;-61
2022/09/04 03:19:09;;;;;;;11.30;6.28;;;;;;;16.62;100.00;94903.81;5011121;28;20281;-61
2022/09/04 03:21:40;;;;;;;9.93;5.78;;;;;;;16.28;100.00;94880.03;5011157;28;20326;-61
2022/09/04 03:24:30;;;;;;;7.97;5.55;;;;;;;16.09;100.00;94857.25;5011448;28;20221;-61
2022/09/04 03:27:03;;;;;;;12.15;6.80;;;;;;;16.14;100.00;94865.25;5011040;28;20187;-61
2022/09/04 03:29:38;;;;;;;8.15;6.65;;;;;;;16.10;100.00;94861.41;5011400;28;20216;-61
2022/09/04 03:32:34;;;;;;;7.43;5.95;;;;;;;16.06;100.00;94857.56;5009723;28;20294;-62
2022/09/04 03:35:28;;;;;;;7.07;5.90;;;;;;;15.90;100.00;94850.63;5009761;28;20235;-61
2022/09/04 03:38:01;;;;;;;8.43;5.68;;;;;;;16.02;100.00;94860.63;5009435;28;20199;-61
2022/09/04 03:40:35;;;;;;;6.57;5.53;;;;;;;15.95;100.00;94870.69;5010938;28;20210;-61
2022/09/04 03:43:13;;;;;;;8.88;5.28;;;;;;;15.98;100.00;94877.28;5010943;28;20202;-63
2022/09/04 03:45:54;;;;;;;11.98;6.25;;;;;;;15.71;100.00;94858.63;5011167;28;20207;-64
2022/09/04 03:48:32;;;;;;;7.78;5.45;;;;;;;15.63;100.00;94865.47;5010315;28;20282;-62
2022/09/04 03:51:09;;;;;;;8.30;5.80;;;;;;;15.56;100.00;94867.84;5010922;28;20186;-62
2022/09/04 03:53:39;;;;;;;11.98;6.60;;;;;;;15.68;100.00;94881.97;5009373;28;20696;-61
2022/09/04 03:56:19;;;;;;;11.10;5.88;;;;;;;15.91;100.00;94900.16;5009384;28;20197;-62
2022/09/04 03:58:50;;;;;;;11.05;6.75;;;;;;;15.92;100.00;94902.56;5009386;28;20309;-62
2022/09/04 04:01:40;;;;;;;8.98;6.03;;;;;;;15.69;100.00;94887.91;5010675;28;20194;-64
2022/09/04 04:04:33;;;;;;;9.40;6.60;;;;;;;15.70;100.00;94892.06;5010600;28;20214;-61
2022/09/04 04:07:18;;;;;;;7.15;6.10;;;;;;;15.76;100.00;94896.56;5010735;28;20187;-61
2022/09/04 04:10:23;;;;;;;7.53;6.80;;;;;;;15.88;100.00;94903.84;5009334;28;20267;-61
2022/09/04 04:12:52;;;;;;;9.65;7.82;;;;;;;15.89;100.00;94912.34;5010444;28;20194;-61
2022/09/04 04:15:47;;;;;;;12.25;8.73;;;;;;;15.75;100.00;94924.00;5010318;28;20214;-61
2022/09/04 04:18:18;;;;;;;14.07;7.97;;;;;;;15.80;100.00;94934.56;5010233;28;20199;-60
2022/09/04 04:21:05;;;;;;;11.65;8.88;;;;;;;15.74;100.00;94931.81;5010644;28;20187;-62
2022/09/04 04:23:37;;;;;;;12.23;10.27;;;;;;;15.59;100.00;94925.69;5010630;28;20214;-63
2022/09/04 04:26:07;;;;;;;20.52;13.02;;;;;;;15.34;100.00;94931.59;5010615;28;20179;-62
2022/09/04 04:28:58;;;;;;;15.13;10.93;;;;;;;15.42;100.00;94937.59;5010545;28;20222;-62
2022/09/04 04:32:31;;;;;;;15.60;10.05;;;;;;;15.38;100.00;94940.59;5010417;28;20180;-61
2022/09/04 04:34:49;;;;;;;11.77;9.30;;;;;;;15.51;100.00;94949.53;5007057;28;20249;-61
2022/09/04 04:37:30;;;;;;;14.70;10.30;;;;;;;15.50;100.00;94953.03;5010313;28;20183;-62
2022/09/04 04:40:17;;;;;;;13.57;9.90;;;;;;;15.60;100.00;94958.84;5010112;28;20214;-61
2022/09/04 04:43:14;;;;;;;18.30;11.40;;;;;;;15.60;100.00;94965.72;5008780;28;20190;-63
2022/09/04 04:45:50;;;;;;;12.18;9.73;;;;;;;15.73;100.00;94955.88;5010133;28;20202;-65
2022/09/04 04:48:47;;;;;;;13.80;10.30;;;;;;;15.76;100.00;94947.84;5010157;28;20197;-61
2022/09/04 04:51:40;;;;;;;13.75;10.55;;;;;;;15.85;100.00;94949.50;4973738;28;20730;-60
2022/09/04 04:54:24;;;;;;;13.65;10.00;;;;;;;16.02;100.00;94960.63;5010545;28;20272;-65
2022/09/04 04:56:52;;;;;;;13.48;9.55;;;;;;;15.95;100.00;94958.69;5009924;28;20646;-62
2022/09/04 05:00:04;;;;;;;15.68;10.25;;;;;;;15.97;100.00;94966.22;5010926;28;20221;-60
2022/09/04 05:02:52;;;;;;;13.60;8.98;;;;;;;16.23;100.00;94977.19;4997929;28;20210;-61
2022/09/04 05:05:56;;;;;;;12.98;9.70;;;;;;;16.19;100.00;94980.22;5013288;28;20215;-62
2022/09/04 05:08:21;;;;;;;12.32;9.05;;;;;;;16.31;100.00;94990.06;5011950;28;20214;-62
2022/09/04 05:10:58;;;;;;;9.75;7.95;;;;;;;16.44;100.00;94992.19;5013197;28;20187;-61
2022/09/04 05:13:53;;;;;;;12.50;8.57;;;;;;;16.46;100.00;94987.69;5013353;28;20207;-62
2022/09/04 05:16:49;;;;;;;11.25;8.40;;;;;;;16.44;100.00;94972.44;5013102;28;20229;-61
2022/09/04 05:19:28;;;;;;;12.88;9.35;;;;;;;16.25;100.00;94954.75;5013357;28;20214;-62
2022/09/04 05:22:21;;;;;;;13.88;9.73;;;;;;;16.14;100.00;94947.34;5013085;28;20195;-61
2022/09/04 05:25:17;;;;;;;12.60;9.00;;;;;;;16.07;100.00;94956.63;5011416;28;20226;-61
2022/09/04 05:27:42;;;;;;;14.48;9.35;;;;;;;16.07;100.00;94956.63;5012786;28;20217;-63
2022/09/04 05:30:10;;;;;;;14.13;9.20;;;;;;;16.06;100.00;94962.72;5023456;22;20226;-61
2022/09/04 05:33:00;;;;;;;12.57;9.23;;;;;;;16.41;100.00;94985.59;5032574;28;20178;-61
2022/09/04 05:35:37;;;;;;;15.88;10.98;;;;;;;16.31;100.00;94961.03;5032588;28;20214;-64
2022/09/04 05:38:14;;;;;;;12.18;9.40;;;;;;;16.43;100.00;94962.34;5032609;28;20657;-61
2022/09/04 05:41:04;;;;;;;12.27;8.82;;;;;;;16.45;100.00;94961.22;5032503;28;20628;-61
2022/09/04 05:43:43;;;;;;;10.20;8.55;;;;;;;16.48;100.00;94962.66;5022430;22;20221;-62
2022/09/04 05:46:26;;;;;;;11.50;9.48;;;;;;;16.57;100.00;94970.25;5012352;28;20195;-62
2022/09/04 05:49:13;;;;;;;14.60;9.10;;;;;;;16.64;100.00;94984.03;5012376;28;20215;-61
2022/09/04 05:52:16;;;;;;;11.65;9.38;;;;;;;16.80;100.00;94978.16;5012468;28;20214;-62
2022/09/04 05:54:42;;;;;;;11.50;9.25;;;;;;;16.89;100.00;94978.97;5012247;28;20217;-62
2022/09/04 05:57:26;;;;;;;12.85;9.20;;;;;;;17.07;100.00;94992.44;5012260;28;20313;-61
2022/09/04 06:00:03;;;;;;;12.15;10.00;;;;;;;16.90;100.00;94980.56;5012565;28;20230;-61
2022/09/04 06:03:14;;;;;;;14.38;10.25;;;;;;;16.98;100.00;94973.66;4994600;28;20182;-61
2022/09/04 06:05:45;;;;;;;9.82;8.57;;;;;;;17.14;100.00;94975.41;4968638;28;20226;-62
2022/09/04 06:08:13;;;;;;;14.27;9.77;;;;;;;17.12;100.00;94967.06;5012223;28;20304;-62
2022/09/04 06:10:45;;;;;;;13.18;9.60;;;;;;;17.06;100.00;94952.28;5011149;28;20201;-62
2022/09/04 06:13:31;;;;;;;12.88;10.18;;;;;;;16.98;100.00;94934.31;5012053;28;20684;-62
2022/09/04 06:16:13;;;;;;;12.02;9.98;;;;;;;17.02;100.00;94938.16;5011958;28;20250;-62
2022/09/04 06:19:10;;;;;;;15.68;9.60;;;;;;;17.20;100.00;94946.50;5012414;28;20206;-62
2022/09/04 06:21:59;;;;;;;12.43;10.23;;;;;;;17.48;100.00;94971.69;5012136;28;20676;-61
2022/09/04 06:24:57;;;;;;;18.30;11.23;;;;;;;17.45;100.00;94969.41;4974883;28;20258;-62
2022/09/04 06:27:23;;;;;;;13.82;10.60;;;;;;;17.26;100.00;94948.41;5012299;28;20202;-62
2022/09/04 06:30:05;;;;;;;18.63;11.38;;;;;;;17.35;100.00;94965.44;5011917;28;20236;-62
2022/09/04 06:32:49;;;;;;;18.10;10.82;;;;;;;17.43;100.00;94963.63;5012066;28;20201;-63
2022/09/04 06:35:35;;;;;;;14.80;10.55;;;;;;;17.28;100.00;94964.47;5011827;28;20211;-61
2022/09/04 06:38:29;;;;;;;16.10;11.35;;;;;;;17.37;100.00;94976.38;5011863;28;20202;-62
2022/09/04 06:41:34;;;;;;;19.60;11.48;;;;;;;17.35;100.00;94973.16;4971409;28;20226;-61
2022/09/04 06:44:31;;;;;;;13.57;11.98;;;;;;;17.08;100.00;94955.50;4994101;28;20272;-63
2022/09/04 06:47:09;;;;;;;13.57;11.07;;;;;;;17.02;100.00;94954.41;5011649;28;20240;-63
2022/09/04 06:50:00;;;;;;;13.60;11.25;;;;;;;16.99;100.00;94941.84;5011586;28;20214;-62
2022/09/04 06:52:37;;;;;;;13.70;11.20;;;;;;;16.93;100.00;94954.56;5011592;28;20187;-63
2022/09/04 06:55:49;;;;;;;13.77;10.70;;;;;;;17.13;100.00;94977.16;4993907;28;20309;-60
2022/09/04 06:58:47;;;;;;;11.45;10.25;;;;;;;17.35;100.00;94986.00;4958343;28;20313;-61
2022/09/04 07:01:47;;;;;;;11.55;9.95;;;;;;;17.31;100.00;94971.88;5011752;28;20213;-61
2022/09/04 07:04:25;;;;;;;15.15;10.57;;;;;;;17.12;100.00;94943.94;5011732;28;20218;-61
2022/09/04 07:07:11;;;;;;;13.57;10.60;;;;;;;17.33;100.00;94951.97;5011531;28;20182;-63
2022/09/04 07:09:46;;;;;;;13.07;10.35;;;;;;;17.33;100.00;94964.81;5011551;28;20684;-61
2022/09/04 07:12:25;;;;;;;11.35;9.77;;;;;;;17.24;100.00;94950.34;5011240;28;20206;-61
2022/09/04 07:15:06;;;;;;;12.45;9.05;;;;;;;17.39;100.00;94974.44;5011394;28;20697;-61
2022/09/04 07:17:56;;;;;;;12.25;10.40;;;;;;;17.24;100.00;94974.28;5011270;28;20179;-62
2022/09/04 07:20:32;;;;;;;12.30;10.43;;;;;;;17.38;100.00;94994.19;4972811;28;20310;-61
2022/09/04 07:23:21;;;;;;;14.73;10.43;;;;;;;17.24;100.00;94958.06;5010880;28;20335;-61
2022/09/04 07:25:58;;;;;;;13.38;10.35;;;;;;;17.29;100.00;94950.69;4993244;28;20249;-62
2022/09/04 07:28:32;;;;;;;11.98;10.30;;;;;;;17.43;100.00;94942.28;5011251;28;20191;-61
2022/09/04 07:31:10;;;;;;;13.45;11.90;;;;;;;17.70;100.00;94944.47;5011121;28;20190;-62
2022/09/04 07:34:01;;;;;;;15.43;11.55;;;;;;;17.77;100.00;94940.28;4993079;28;20727;-63
2022/09/04 07:36:34;;;;;;;12.80;10.60;;;;;;;17.97;100.00;94951.78;5010944;28;20183;-61
2022/09/04 07:39:37;;;;;;;12.70;11.38;;;;;;;18.13;100.00;94958.63;5011193;28;20215;-62
2022/09/04 07:42:36;;;;;;;15.55;11.48;;;;;;;18.23;100.00;94975.47;5010705;28;20626;-62
2022/09/04 07:45:10;;;;;;;16.63;12.93;;;;;;;18.36;100.00;94998.88;4993096;28;20308;-62
2022/09/04 07:47:43;;;;;;;18.15;13.60;;;;;;;18.30;100.00;95006.50;5010857;28;20215;-63
2022/09/04 07:50:21;;;;;;;18.00;13.05;;;;;;;18.21;100.00;95008.31;5010813;28;20238;-63
2022/09/04 07:52:52;;;;;;;15.48;12.85;;;;;;;18.59;100.00;95023.91;5010741;28;20182;-62
2022/09/04 07:55:34;;;;;;;18.95;14.52;;;;;;;18.80;100.00;95039.56;4992926;28;20211;-61
2022/09/04 07:58:21;;;;;;;17.33;13.45;;;;;;;18.60;100.00;95008.31;5010838;28;20202;-64
2022/09/04 08:00:53;;;;;;;16.52;13.32;;;;;;;18.72;100.00;95021.59;4992886;28;20201;-63
2022/09/04 08:04:08;;;;;;;17.67;14.18;;;;;;;18.76;100.00;95018.50;4992766;28;20229;-62
2022/09/04 08:06:58;;;;;;;18.52;15.05;;;;;;;18.93;100.00;95022.56;5010578;28;20614;-62
2022/09/04 08:09:39;;;;;;;16.55;13.38;;;;;;;18.86;100.00;95015.69;4992655;28;20225;-62
2022/09/04 08:12:41;;;;;;;31.27;24.55;;;;;;;18.87;100.00;95019.88;5010612;28;20205;-62
2022/09/04 08:15:18;;;;;;;20.67;13.93;;;;;;;19.16;100.00;95056.09;5010647;28;20218;-63
2022/09/04 08:18:00;;;;;;;16.65;13.07;;;;;;;19.32;100.00;95050.00;5010322;28;20700;-62
2022/09/04 08:20:34;;;;;;;18.08;13.57;;;;;;;19.34;100.00;95048.88;4992815;28;20305;-61
2022/09/04 08:23:21;;;;;;;16.17;13.23;;;;;;;19.48;100.00;95061.00;5010455;28;20205;-62
2022/09/04 08:26:13;;;;;;;15.68;12.45;;;;;;;19.48;100.00;95089.38;5010168;28;20214;-61
2022/09/04 08:29:07;;;;;;;15.90;11.80;;;;;;;19.49;100.00;95085.03;5003016;22;20225;-61
2022/09/04 08:31:41;;;;;;;15.40;12.93;;;;;;;19.66;100.00;95076.97;5029906;28;20197;-63
2022/09/04 08:34:19;;;;;;;14.10;11.57;;;;;;;19.75;100.00;95078.53;5030476;28;20220;-61
2022/09/04 08:37:14;;;;;;;12.93;11.23;;;;;;;19.86;100.00;95074.69;5033602;28;20200;-62
2022/09/04 08:40:00;;;;;;;13.75;11.68;;;;;;;20.24;100.00;95065.16;5040896;22;20257;-62
2022/09/04 08:42:43;;;;;;;14.30;11.38;;;;;;;20.38;100.00;95118.59;5033413;28;20292;-62
2022/09/04 08:45:17;;;;;;;12.95;11.23;;;;;;;20.49;100.00;95106.03;5033279;28;20224;-63
2022/09/04 08:48:01;;;;;;;11.85;10.05;;;;;;;20.52;99.35;95117.78;5033358;28;20689;-64
2022/09/04 08:50:29;;;;;;;13.00;9.98;;;;;;;20.72;100.00;95080.06;5033448;28;20217;-63
2022/09/04 08:53:04;;;;;;;11.70;9.77;;;;;;;21.00;98.55;95116.38;5033411;28;20281;-62
2022/09/04 08:55:35;;;;;;;11.45;8.88;;;;;;;21.23;95.44;95141.13;5033062;28;20206;-63
2022/09/04 08:58:19;;;;;;;12.70;8.55;;;;;;;21.43;93.17;95154.28;5033320;28;20252;-65
2022/09/04 09:01:15;;;;;;;9.70;8.70;;;;;;;21.65;89.40;95174.78;5033239;28;20218;-63
2022/09/04 09:04:10;;;;;;;9.23;8.15;;;;;;;21.88;92.38;95120.28;5032982;28;20267;-63
2022/09/04 09:07:00;;;;;;;8.90;8.00;;;;;;;22.20;88.90;95170.75;5033083;28;20257;-63
2022/09/04 09:10:08;;;;;;;9.35;7.47;;;;;;;22.46;85.86;95207.19;5033294;28;20221;-62
2022/09/04 09:13:00;;;;;;;10.55;6.13;;;;;;;22.53;81.53;95245.13;5023101;28;20708;-63
2022/09/04 09:15:38;;;;;;;6.78;5.97;;;;;;;22.69;79.95;95267.41;5033162;28;20225;-63
2022/09/04 09:18:19;;;;;;;7.15;6.32;;;;;;;23.04;78.54;95253.47;5033157;28;20186;-64
2022/09/04 09:21:23;;;;;;;6.63;5.50;;;;;;;23.40;74.95;95310.38;5033173;28;20182;-63
2022/09/04 09:24:10;;;;;;;7.00;5.22;;;;;;;23.43;74.00;95288.44;5032306;28;20217;-63
2022/09/04 09:27:02;;;;;;;5.18;4.68;;;;;;;23.64;72.57;95309.06;5032901;28;20200;-62
2022/09/04 09:30:01;;;;;;;5.90;5.30;;;;;;;23.83;72.39;95272.81;4995913;28;20234;-62
2022/09/04 09:32:29;;;;;;;6.15;5.55;;;;;;;23.95;69.61;95325.78;5032907;28;20193;-63
2022/09/04 09:35:01;;;;;;;6.45;5.85;;;;;;;24.07;72.78;95233.31;5033028;28;20272;-63
2022/09/04 09:37:48;;;;;;;6.00;5.50;;;;;;;24.19;72.08;95256.91;5015013;28;20194;-63
2022/09/04 09:40:37;;;;;;;6.05;5.45;;;;;;;24.72;69.16;95302.75;5032619;28;20218;-63
2022/09/04 09:43:23;;;;;;;6.60;5.43;;;;;;;25.08;69.12;95297.13;5032729;28;20186;-64
2022/09/04 09:45:48;;;;;;;5.90;5.40;;;;;;;25.23;67.20;95331.53;5031290;28;20244;-63
2022/09/04 09:48:23;;;;;;;6.38;5.07;;;;;;;25.32;67.03;95317.28;5014832;28;20736;-63
2022/09/04 09:51:13;;;;;;;7.55;5.43;;;;;;;25.21;65.75;95335.34;5032620;28;20197;-63
2022/09/04 09:54:11;;;;;;;7.38;5.07;;;;;;;25.06;64.15;95345.16;5032420;28;20282;-63
2022/09/04 09:57:03;;;;;;;5.80;5.25;;;;;;;25.12;63.49;95352.97;5001719;28;20241;-63
2022/09/04 10:00:04;;;;;;;6.05;4.65;;;;;;;25.70;63.59;95328.63;5032393;28;20284;-63
2022/09/04 10:02:55;;;;;;;6.40;5.57;;;;;;;25.99;63.73;95308.25;5014558;28;20276;-63
2022/09/04 10:05:39;;;;;;;6.18;5.30;;;;;;;26.26;62.61;95335.81;5014481;28;20229;-63
2022/09/04 10:08:19;;;;;;;5.50;4.95;;;;;;;26.45;63.73;95309.63;5032385;28;20186;-63
2022/09/04 10:11:03;;;;;;;6.63;5.22;;;;;;;26.34;59.92;95387.75;5032325;28;20303;-64
2022/09/04 10:13:53;;;;;;;8.02;6.00;;;;;;;26.85;58.27;95421.56;5032214;28;20645;-62
2022/09/04 10:16:18;;;;;;;6.78;5.07;;;;;;;27.19;61.07;95333.13;5032242;28;20194;-63
2022/09/04 10:19:18;;;;;;;4.90;4.50;;;;;;;27.27;58.78;95390.28;5031946;28;20723;-62
2022/09/04 10:21:49;;;;;;;5.03;4.63;;;;;;;27.62;59.11;95361.84;5031886;28;20237;-63
2022/09/04 10:24:34;;;;;;;6.68;5.03;;;;;;;27.64;59.12;95346.75;5031782;28;20288;-62
2022/09/04 10:27:21;;;;;;;6.78;5.18;;;;;;;27.78;59.74;95324.69;5031850;28;20198;-62
2022/09/04 10:30:09;;;;;;;4.80;4.40;;;;;;;28.04;56.82;95399.41;5031771;28;20214;-62
2022/09/04 10:33:20;;;;;;;5.10;4.60;;;;;;;28.14;55.83;95412.75;5031838;28;20231;-64
2022/09/04 10:36:12;;;;;;;5.93;4.28;;;;;;;28.16;55.15;95398.47;5020907;28;20214;-62
2022/09/04 10:40:34;;;;;;;6.88;4.15;;;;;;;27.71;54.40;95418.06;5031390;28;20229;-63
2022/09/04 10:41:41;;;;;;;4.97;4.50;;;;;;;28.17;54.48;95410.53;5031655;28;20486;-63
2022/09/04 10:44:16;;;;;;;5.30;4.03;;;;;;;28.22;54.66;95394.16;5031280;28;20595;-62
2022/09/04 10:47:03;;;;;;;5.30;4.80;;;;;;;28.19;54.49;95398.03;5031786;28;20189;-64
2022/09/04 10:49:37;;;;;;;7.68;5.38;;;;;;;27.38;55.26;95347.03;5013096;28;20210;-63
2022/09/04 10:52:42;;;;;;;5.00;4.40;;;;;;;27.47;54.06;95371.88;5030483;28;20189;-63
2022/09/04 10:55:17;;;;;;;6.82;4.40;;;;;;;27.32;56.12;95313.91;5003191;28;20312;-61
2022/09/04 10:58:09;;;;;;;10.13;8.00;;;;;;;26.92;57.36;95268.31;5030912;28;20185;-62
2022/09/04 11:00:49;;;;;;;6.85;4.85;;;;;;;27.33;55.61;95320.75;5032866;28;20203;-62
2022/09/04 11:03:30;;;;;;;5.43;4.40;;;;;;;28.02;55.05;95334.25;5000188;28;20187;-64
2022/09/04 11:06:11;;;;;;;7.80;7.00;;;;;;;28.26;54.41;95357.91;5010076;28;20310;-62
2022/09/04 11:08:46;;;;;;;6.30;5.63;;;;;;;27.90;55.36;95312.47;5009519;28;20238;-62
2022/09/04 11:11:35;;;;;;;5.53;5.03;;;;;;;28.21;54.08;95329.78;5011356;28;20202;-62
2022/09/04 11:14:22;;;;;;;5.75;4.00;;;;;;;28.34;53.76;95349.75;5011557;28;20293;-62
2022/09/04 11:17:19;;;;;;;4.90;4.40;;;;;;;28.92;52.31;95385.56;4981031;28;20245;-62
2022/09/04 11:20:22;;;;;;;5.25;4.80;;;;;;;28.52;50.94;95402.84;5011090;28;20266;-63
2022/09/04 11:23:00;;;;;;;4.90;4.40;;;;;;;28.49;49.91;95432.06;4993574;28;20236;-61
2022/09/04 11:25:26;;;;;;;7.25;4.78;;;;;;;28.67;50.90;95384.13;5011377;28;20218;-62
2022/09/04 11:27:54;;;;;;;4.18;3.83;;;;;;;29.06;49.43;95414.97;5011119;28;20194;-62
2022/09/04 11:30:27;;;;;;;4.45;4.05;;;;;;;29.17;49.04;95427.28;5010982;28;20195;-62
2022/09/04 11:33:18;;;;;;;8.15;7.35;;;;;;;28.93;49.98;95383.72;5011049;28;20222;-63
2022/09/04 11:36:04;;;;;;;5.20;4.40;;;;;;;28.88;50.16;95386.25;5011041;28;20248;-64
2022/09/04 11:39:00;;;;;;;5.35;4.05;;;;;;;28.77;49.50;95398.28;5010294;28;20217;-63
2022/09/04 11:41:28;;;;;;;5.57;3.80;;;;;;;29.26;49.03;95389.28;5010903;28;20801;-62
2022/09/04 11:44:13;;;;;;;5.55;4.43;;;;;;;29.47;48.60;95398.41;5010761;28;20329;-63
2022/09/04 11:47:15;;;;;;;5.40;4.90;;;;;;;29.52;48.73;95380.97;5027824;23;20609;-63
2022/09/04 11:50:07;;;;;;;7.88;5.40;;;;;;;29.27;49.92;95364.66;5030588;28;20209;-62
2022/09/04 11:53:22;;;;;;;4.95;3.90;;;;;;;29.20;48.07;95405.91;5026828;28;20209;-62
2022/09/04 11:56:23;;;;;;;4.72;4.32;;;;;;;28.41;49.47;95342.59;5030958;28;20312;-62
2022/09/04 11:59:04;;;;;;;6.18;5.45;;;;;;;28.48;52.94;95254.34;5029522;28;20210;-61
2022/09/04 12:01:30;;;;;;;6.25;4.30;;;;;;;28.74;53.13;95251.31;5029092;28;20201;-63
2022/09/04 12:04:21;;;;;;;4.32;3.92;;;;;;;28.52;51.38;95281.66;5027981;28;20209;-63
2022/09/04 12:07:12;;;;;;;5.63;4.07;;;;;;;28.56;52.02;95264.50;5028262;28;20603;-63
2022/09/04 12:10:12;;;;;;;4.72;4.20;;;;;;;28.49;52.04;95258.53;5027179;28;20297;-64
2022/09/04 12:12:59;;;;;;;4.55;4.10;;;;;;;28.41;50.83;95300.72;5028109;28;20182;-64
2022/09/04 12:16:03;;;;;;;4.13;3.72;;;;;;;28.55;50.18;95305.59;5028192;28;20206;-64
2022/09/04 12:19:14;;;;;;;4.95;4.07;;;;;;;28.65;52.08;95236.97;5027927;28;20657;-62
2022/09/04 12:22:13;;;;;;;6.95;4.88;;;;;;;28.84;51.30;95268.06;5030513;28;20237;-62
2022/09/04 12:25:00;;;;;;;4.97;4.50;;;;;;;29.07;50.51;95290.81;5029870;28;20241;-62
2022/09/04 12:27:47;;;;;;;4.20;3.72;;;;;;;28.67;51.33;95263.72;5030173;28;20320;-62
2022/09/04 12:30:43;;;;;;;5.90;4.88;;;;;;;28.47;49.89;95307.69;5028679;28;20229;-61
2022/09/04 12:33:11;;;;;;;5.43;4.38;;;;;;;28.32;49.79;95305.47;5006956;28;20209;-62
2022/09/04 12:35:41;;;;;;;6.28;3.95;;;;;;;28.63;49.08;95314.91;5028818;28;20300;-63
2022/09/04 12:38:24;;;;;;;5.82;3.88;;;;;;;28.49;49.93;95301.22;5029453;28;20194;-63
2022/09/04 12:41:01;;;;;;;3.97;3.67;;;;;;;29.04;48.18;95341.06;5029866;28;20190;-63